createdAt,value
2019-03-04T00:00:00.386Z,980.83
2019-03-04T00:01:00.341Z,980.88
2019-03-04T00:02:00.329Z,980.80
2019-03-04T00:03:00.322Z,980.55
2019-03-04T00:04:00.313Z,980.56
2019-03-04T00:05:00.321Z,980.32
2019-03-04T00:06:00.294Z,980.70
2019-03-04T00:07:00.285Z,980.49
2019-03-04T00:08:00.272Z,980.46
2019-03-04T00:09:00.263Z,980.44
2019-03-04T00:10:00.328Z,980.29
2019-03-04T00:11:00.295Z,980.38
2019-03-04T00:12:00.233Z,980.62
2019-03-04T00:13:00.223Z,980.35
2019-03-04T00:14:00.212Z,980.31
2019-03-04T00:15:00.239Z,979.87
2019-03-04T00:16:01.097Z,980.09
2019-03-04T00:17:00.234Z,980.20
2019-03-04T00:18:00.223Z,980.10
2019-03-04T00:19:00.214Z,980.14
2019-03-04T00:20:00.392Z,980.36
2019-03-04T00:21:00.146Z,980.36
2019-03-04T00:22:00.185Z,980.43
2019-03-04T00:23:00.137Z,980.33
2019-03-04T00:24:00.169Z,980.22
2019-03-04T00:25:00.107Z,980.21
2019-03-04T00:26:00.097Z,980.16
2019-03-04T00:27:00.091Z,980.11
2019-03-04T00:28:00.082Z,980.18
2019-03-04T00:29:00.068Z,980.18
2019-03-04T00:30:00.058Z,980.25
2019-03-04T00:31:00.048Z,980.02
2019-03-04T00:32:00.038Z,980.21
2019-03-04T00:33:00.028Z,979.91
2019-03-04T00:34:00.019Z,980.47
2019-03-04T00:35:00.009Z,980.37
2019-03-04T00:35:59.998Z,980.26
2019-03-04T00:36:59.988Z,980.55
2019-03-04T00:37:59.977Z,980.41
2019-03-04T00:38:59.968Z,980.73
2019-03-04T00:39:59.972Z,980.50
2019-03-04T00:40:59.952Z,980.60
2019-03-04T00:41:59.939Z,980.40
2019-03-04T00:42:59.929Z,980.45
2019-03-04T00:43:59.919Z,980.56
2019-03-04T00:44:59.910Z,980.55
2019-03-04T00:45:59.959Z,980.54
2019-03-04T00:46:59.890Z,980.74
2019-03-04T00:47:59.880Z,980.74
2019-03-04T00:48:59.872Z,980.62
2019-03-04T00:49:59.860Z,980.47
2019-03-04T00:50:59.850Z,980.57
2019-03-04T00:51:59.841Z,980.58
2019-03-04T00:52:59.831Z,980.67
2019-03-04T00:53:59.824Z,980.60
2019-03-04T00:54:59.811Z,980.51
2019-03-04T00:55:59.801Z,980.60
2019-03-04T00:56:59.794Z,980.64
2019-03-04T00:57:59.780Z,980.43
2019-03-04T00:58:59.771Z,980.23
2019-03-04T00:59:59.761Z,980.22
2019-03-04T01:00:59.751Z,980.81
2019-03-04T01:01:59.741Z,980.25
2019-03-04T01:02:59.733Z,980.27
2019-03-04T01:03:59.720Z,980.35
2019-03-04T01:04:59.713Z,980.76
2019-03-04T01:05:59.700Z,980.68
2019-03-04T01:06:59.690Z,980.59
2019-03-04T01:07:59.681Z,980.54
2019-03-04T01:08:59.671Z,980.54
2019-03-04T01:09:59.667Z,980.44
2019-03-04T01:10:59.650Z,980.43
2019-03-04T01:11:59.640Z,980.35
2019-03-04T01:12:59.630Z,980.29
2019-03-04T01:13:59.619Z,979.99
2019-03-04T01:14:59.610Z,979.81
2019-03-04T01:15:59.600Z,979.87
2019-03-04T01:16:59.590Z,979.57
2019-03-04T01:17:59.584Z,979.62
2019-03-04T01:18:59.569Z,979.65
2019-03-04T01:19:59.560Z,979.74
2019-03-04T01:20:59.553Z,980.24
2019-03-04T01:21:59.539Z,979.55
2019-03-04T01:22:59.528Z,979.72
2019-03-04T01:23:59.519Z,979.65
2019-03-04T01:24:59.508Z,979.56
2019-03-04T01:25:59.498Z,979.57
2019-03-04T01:26:59.487Z,979.46
2019-03-04T01:27:59.478Z,979.47
2019-03-04T01:28:59.468Z,979.42
2019-03-04T01:29:59.457Z,979.28
2019-03-04T01:30:59.447Z,979.24
2019-03-04T01:31:59.437Z,979.46
2019-03-04T01:32:59.427Z,979.37
2019-03-04T01:33:59.418Z,979.41
2019-03-04T01:34:59.406Z,979.45
2019-03-04T01:35:59.396Z,979.50
2019-03-04T01:36:59.386Z,979.70
2019-03-04T01:37:59.375Z,979.59
2019-03-04T01:38:59.366Z,979.25
2019-03-04T01:39:59.356Z,979.25
2019-03-04T01:40:59.346Z,979.15
2019-03-04T01:41:59.335Z,979.14
2019-03-04T01:42:59.325Z,979.07
2019-03-04T01:43:59.315Z,979.09
2019-03-04T01:44:59.305Z,979.10
2019-03-04T01:45:59.295Z,979.09
2019-03-04T01:46:59.284Z,979.12
2019-03-04T01:47:59.275Z,979.17
2019-03-04T01:48:59.265Z,979.02
2019-03-04T01:49:59.255Z,978.96
2019-03-04T01:50:59.245Z,978.96
2019-03-04T01:51:59.234Z,979.14
2019-03-04T01:52:59.224Z,979.14
2019-03-04T01:53:59.214Z,979.04
2019-03-04T01:54:59.203Z,979.19
2019-03-04T01:55:59.194Z,979.02
2019-03-04T01:56:59.184Z,978.83
2019-03-04T01:57:59.173Z,978.84
2019-03-04T01:58:59.166Z,978.91
2019-03-04T01:59:59.157Z,978.58
2019-03-04T02:00:59.143Z,978.67
2019-03-04T02:01:59.133Z,978.48
2019-03-04T02:02:59.122Z,978.44
2019-03-04T02:03:59.113Z,978.37
2019-03-04T02:04:59.102Z,978.21
2019-03-04T02:05:59.093Z,978.24
2019-03-04T02:06:59.085Z,978.35
2019-03-04T02:07:59.072Z,978.29
2019-03-04T02:08:59.062Z,978.28
2019-03-04T02:09:59.051Z,978.18
2019-03-04T02:10:59.041Z,978.30
2019-03-04T02:11:59.031Z,978.05
2019-03-04T02:12:59.022Z,978.11
2019-03-04T02:13:59.011Z,978.00
2019-03-04T02:14:59.001Z,977.81
2019-03-04T02:15:58.992Z,977.88
2019-03-04T02:16:58.982Z,977.83
2019-03-04T02:17:58.972Z,977.83
2019-03-04T02:18:58.962Z,977.86
2019-03-04T02:19:58.952Z,977.69
2019-03-04T02:20:58.942Z,977.79
2019-03-04T02:21:58.931Z,977.69
2019-03-04T02:22:58.922Z,977.65
2019-03-04T02:23:58.913Z,977.94
2019-03-04T02:24:58.903Z,977.87
2019-03-04T02:25:58.892Z,977.51
2019-03-04T02:26:58.882Z,978.06
2019-03-04T02:27:58.874Z,977.62
2019-03-04T02:28:58.864Z,977.82
2019-03-04T02:29:58.853Z,977.73
2019-03-04T02:30:58.843Z,977.90
2019-03-04T02:31:58.864Z,977.83
2019-03-04T02:32:58.825Z,977.89
2019-03-04T02:33:58.814Z,977.95
2019-03-04T02:34:58.806Z,977.68
2019-03-04T02:35:58.796Z,977.87
2019-03-04T02:36:58.785Z,977.88
2019-03-04T02:37:58.776Z,977.82
2019-03-04T02:38:58.767Z,977.87
2019-03-04T02:39:58.757Z,976.96
2019-03-04T02:40:58.750Z,977.85
2019-03-04T02:41:58.737Z,977.77
2019-03-04T02:42:58.728Z,977.60
2019-03-04T02:43:58.718Z,977.68
2019-03-04T02:44:58.726Z,977.31
2019-03-04T02:45:58.697Z,977.51
2019-03-04T02:46:58.687Z,977.52
2019-03-04T02:47:58.678Z,977.71
2019-03-04T02:48:58.672Z,977.38
2019-03-04T02:49:58.659Z,977.44
2019-03-04T02:50:58.649Z,977.33
2019-03-04T02:51:58.640Z,977.24
2019-03-04T02:52:58.630Z,977.36
2019-03-04T02:53:58.619Z,977.22
2019-03-04T02:54:58.610Z,977.23
2019-03-04T02:55:58.601Z,977.00
2019-03-04T02:56:58.590Z,977.07
2019-03-04T02:57:58.581Z,976.73
2019-03-04T02:58:58.672Z,976.80
2019-03-04T02:59:58.563Z,976.91
2019-03-04T03:00:58.552Z,976.81
2019-03-04T03:01:58.557Z,976.57
2019-03-04T03:02:58.540Z,976.59
2019-03-04T03:03:58.524Z,976.66
2019-03-04T03:04:58.513Z,976.29
2019-03-04T03:05:58.502Z,976.15
2019-03-04T03:06:58.496Z,976.06
2019-03-04T03:07:58.484Z,975.84
2019-03-04T03:08:58.479Z,975.87
2019-03-04T03:09:58.464Z,975.80
2019-03-04T03:10:58.453Z,975.59
2019-03-04T03:11:58.446Z,975.51
2019-03-04T03:12:58.436Z,975.30
2019-03-04T03:13:58.426Z,975.35
2019-03-04T03:14:58.421Z,975.22
2019-03-04T03:15:58.408Z,975.27
2019-03-04T03:16:58.397Z,975.30
2019-03-04T03:17:58.387Z,975.43
2019-03-04T03:18:58.376Z,975.43
2019-03-04T03:19:58.373Z,975.01
2019-03-04T03:20:58.360Z,975.08
2019-03-04T03:21:58.346Z,974.93
2019-03-04T03:22:58.337Z,974.73
2019-03-04T03:23:59.429Z,974.90
2019-03-04T03:24:58.418Z,974.82
2019-03-04T03:25:58.306Z,975.03
2019-03-04T03:26:58.297Z,975.12
2019-03-04T03:27:58.290Z,975.03
2019-03-04T03:28:58.277Z,974.95
2019-03-04T03:29:58.267Z,975.28
2019-03-04T03:30:58.265Z,975.12
2019-03-04T03:31:58.253Z,975.67
2019-03-04T03:32:58.240Z,975.24
2019-03-04T03:33:58.230Z,975.40
2019-03-04T03:34:58.218Z,974.80
2019-03-04T03:35:58.207Z,974.99
2019-03-04T03:36:58.202Z,975.43
2019-03-04T03:37:58.190Z,975.15
2019-03-04T03:38:58.184Z,975.51
2019-03-04T03:39:58.183Z,975.34
2019-03-04T03:40:58.158Z,975.36
2019-03-04T03:41:58.147Z,975.49
2019-03-04T03:42:58.137Z,975.50
2019-03-04T03:43:58.129Z,975.02
2019-03-04T03:44:58.128Z,975.57
2019-03-04T03:45:58.109Z,975.16
2019-03-04T03:46:58.103Z,975.20
2019-03-04T03:47:58.090Z,974.64
2019-03-04T03:48:58.082Z,975.36
2019-03-04T03:49:58.069Z,975.26
2019-03-04T03:50:58.061Z,974.98
2019-03-04T03:51:58.051Z,975.12
2019-03-04T03:52:58.043Z,975.07
2019-03-04T03:53:58.030Z,974.72
2019-03-04T03:54:58.022Z,974.82
2019-03-04T03:55:58.011Z,974.79
2019-03-04T03:56:58.001Z,974.51
2019-03-04T03:57:57.990Z,974.69
2019-03-04T03:58:57.982Z,974.87
2019-03-04T03:59:57.972Z,974.83
2019-03-04T04:00:57.964Z,974.55
2019-03-04T04:01:57.952Z,974.64
2019-03-04T04:02:57.941Z,974.68
2019-03-04T04:03:57.936Z,974.85
2019-03-04T04:04:57.922Z,974.98
2019-03-04T04:05:57.916Z,974.83
2019-03-04T04:06:57.910Z,974.83
2019-03-04T04:07:57.892Z,974.80
2019-03-04T04:08:57.883Z,974.92
2019-03-04T04:09:57.872Z,974.76
2019-03-04T04:10:57.862Z,974.24
2019-03-04T04:11:57.853Z,974.92
2019-03-04T04:12:57.842Z,974.65
2019-03-04T04:13:57.833Z,975.11
2019-03-04T04:14:57.822Z,974.87
2019-03-04T04:15:57.814Z,975.20
2019-03-04T04:16:57.803Z,975.11
2019-03-04T04:17:57.793Z,975.02
2019-03-04T04:18:57.784Z,975.16
2019-03-04T04:19:57.775Z,974.96
2019-03-04T04:20:57.763Z,975.00
2019-03-04T04:21:57.754Z,975.20
2019-03-04T04:22:57.744Z,975.15
2019-03-04T04:23:57.741Z,975.13
2019-03-04T04:24:57.724Z,975.04
2019-03-04T04:25:57.719Z,975.09
2019-03-04T04:26:57.711Z,975.03
2019-03-04T04:27:57.693Z,974.89
2019-03-04T04:28:57.684Z,975.07
2019-03-04T04:29:57.674Z,975.10
2019-03-04T04:30:57.663Z,975.08
2019-03-04T04:31:57.659Z,974.92
2019-03-04T04:32:57.653Z,975.04
2019-03-04T04:33:57.636Z,974.93
2019-03-04T04:34:57.625Z,974.90
2019-03-04T04:35:57.616Z,974.83
2019-03-04T04:36:57.607Z,974.86
2019-03-04T04:37:57.594Z,974.80
2019-03-04T04:38:57.586Z,974.95
2019-03-04T04:39:57.575Z,974.52
2019-03-04T04:40:57.565Z,974.65
2019-03-04T04:41:57.554Z,974.66
2019-03-04T04:42:57.548Z,974.71
2019-03-04T04:43:57.534Z,974.66
2019-03-04T04:44:57.525Z,974.62
2019-03-04T04:45:57.521Z,974.61
2019-03-04T04:46:57.505Z,974.52
2019-03-04T04:47:57.495Z,974.40
2019-03-04T04:48:57.491Z,974.46
2019-03-04T04:49:57.474Z,974.41
2019-03-04T04:50:57.466Z,974.32
2019-03-04T04:51:57.457Z,974.07
2019-03-04T04:52:57.446Z,974.25
2019-03-04T04:53:57.435Z,974.56
2019-03-04T04:54:57.425Z,974.58
2019-03-04T04:55:57.416Z,974.37
2019-03-04T04:56:57.406Z,974.36
2019-03-04T04:57:57.398Z,974.34
2019-03-04T04:58:57.386Z,974.32
2019-03-04T04:59:57.377Z,974.24
2019-03-04T05:00:57.367Z,974.26
2019-03-04T05:01:57.357Z,974.16
2019-03-04T05:02:57.347Z,974.31
2019-03-04T05:03:57.337Z,974.30
2019-03-04T05:04:57.327Z,974.04
2019-03-04T05:05:57.316Z,974.42
2019-03-04T05:06:57.306Z,974.10
2019-03-04T05:07:57.297Z,974.00
2019-03-04T05:08:57.287Z,974.01
2019-03-04T05:09:57.277Z,973.93
2019-03-04T05:10:57.267Z,974.01
2019-03-04T05:11:57.258Z,973.96
2019-03-04T05:12:57.248Z,974.08
2019-03-04T05:13:57.237Z,974.29
2019-03-04T05:14:57.231Z,973.97
2019-03-04T05:15:57.217Z,973.88
2019-03-04T05:16:57.210Z,974.23
2019-03-04T05:17:57.197Z,973.77
2019-03-04T05:18:57.187Z,973.95
2019-03-04T05:19:57.177Z,973.92
2019-03-04T05:20:57.167Z,974.05
2019-03-04T05:21:57.157Z,973.74
2019-03-04T05:22:57.151Z,973.60
2019-03-04T05:23:57.137Z,973.80
2019-03-04T05:24:57.128Z,973.73
2019-03-04T05:25:57.117Z,973.72
2019-03-04T05:26:57.107Z,973.53
2019-03-04T05:27:57.097Z,973.58
2019-03-04T05:28:57.088Z,973.73
2019-03-04T05:29:57.077Z,973.69
2019-03-04T05:30:57.073Z,973.74
2019-03-04T05:31:57.063Z,973.69
2019-03-04T05:32:57.047Z,974.19
2019-03-04T05:33:57.044Z,974.86
2019-03-04T05:34:57.027Z,975.42
2019-03-04T05:35:57.019Z,975.69
2019-03-04T05:36:57.007Z,975.61
2019-03-04T05:37:56.996Z,975.77
2019-03-04T05:38:56.985Z,975.74
2019-03-04T05:39:56.976Z,975.54
2019-03-04T05:40:56.965Z,975.45
2019-03-04T05:41:56.952Z,975.80
2019-03-04T05:42:56.942Z,975.72
2019-03-04T05:43:56.929Z,975.64
2019-03-04T05:44:56.920Z,975.61
2019-03-04T05:45:56.905Z,975.94
2019-03-04T05:46:56.892Z,975.95
2019-03-04T05:47:56.881Z,975.84
2019-03-04T05:48:56.869Z,975.69
2019-03-04T05:49:56.855Z,975.73
2019-03-04T05:50:56.843Z,975.65
2019-03-04T05:51:56.831Z,975.61
2019-03-04T05:52:56.819Z,975.63
2019-03-04T05:53:56.805Z,975.42
2019-03-04T05:54:56.791Z,975.48
2019-03-04T05:55:56.782Z,975.51
2019-03-04T05:56:56.768Z,975.55
2019-03-04T05:57:56.752Z,975.81
2019-03-04T05:58:56.739Z,975.56
2019-03-04T05:59:56.726Z,975.62
2019-03-04T06:00:56.714Z,975.50
2019-03-04T06:01:56.701Z,975.55
2019-03-04T06:02:56.687Z,975.29
2019-03-04T06:03:56.673Z,975.25
2019-03-04T06:04:56.659Z,975.16
2019-03-04T06:05:56.647Z,974.97
2019-03-04T06:06:56.637Z,974.70
2019-03-04T06:07:56.630Z,974.71
2019-03-04T06:08:56.610Z,974.71
2019-03-04T06:09:56.591Z,974.82
2019-03-04T06:10:56.578Z,974.78
2019-03-04T06:11:56.565Z,974.71
2019-03-04T06:12:58.718Z,974.64
2019-03-04T06:13:56.536Z,974.65
2019-03-04T06:14:56.535Z,974.68
2019-03-04T06:15:56.511Z,974.59
2019-03-04T06:16:56.498Z,974.66
2019-03-04T06:17:56.484Z,974.62
2019-03-04T06:18:56.470Z,974.55
2019-03-04T06:19:56.457Z,974.43
2019-03-04T06:20:56.444Z,974.52
2019-03-04T06:21:56.430Z,974.57
2019-03-04T06:22:56.416Z,974.60
2019-03-04T06:23:56.404Z,974.49
2019-03-04T06:24:56.391Z,974.40
2019-03-04T06:25:56.380Z,974.49
2019-03-04T06:26:56.367Z,974.47
2019-03-04T06:27:56.352Z,974.49
2019-03-04T06:28:56.338Z,974.40
2019-03-04T06:29:56.325Z,974.60
2019-03-04T06:30:56.314Z,974.46
2019-03-04T06:31:56.300Z,974.61
2019-03-04T06:32:56.287Z,974.53
2019-03-04T06:33:56.274Z,974.45
2019-03-04T06:34:56.261Z,974.48
2019-03-04T06:35:56.248Z,974.54
2019-03-04T06:36:56.236Z,974.40
2019-03-04T06:37:56.228Z,974.47
2019-03-04T06:38:56.210Z,974.66
2019-03-04T06:39:56.197Z,974.38
2019-03-04T06:40:56.185Z,974.48
2019-03-04T06:41:56.173Z,974.48
2019-03-04T06:42:56.161Z,974.47
2019-03-04T06:43:56.146Z,974.47
2019-03-04T06:44:56.137Z,974.62
2019-03-04T06:45:56.122Z,974.47
2019-03-04T06:46:56.109Z,974.62
2019-03-04T06:47:56.097Z,974.67
2019-03-04T06:48:56.089Z,974.69
2019-03-04T06:49:56.071Z,974.78
2019-03-04T06:50:56.058Z,974.93
2019-03-04T06:51:56.048Z,974.75
2019-03-04T06:52:56.034Z,974.74
2019-03-04T06:53:56.022Z,974.81
2019-03-04T06:54:56.009Z,974.82
2019-03-04T06:55:55.997Z,974.74
2019-03-04T06:56:55.984Z,974.82
2019-03-04T06:57:55.972Z,974.61
2019-03-04T06:58:55.959Z,974.64
2019-03-04T06:59:55.947Z,974.61
2019-03-04T07:00:55.937Z,974.47
2019-03-04T07:01:55.923Z,974.48
2019-03-04T07:02:55.911Z,974.59
2019-03-04T07:03:55.899Z,974.51
2019-03-04T07:04:55.887Z,974.33
2019-03-04T07:05:55.877Z,974.50
2019-03-04T07:06:55.863Z,974.49
2019-03-04T07:07:55.851Z,974.56
2019-03-04T07:08:55.889Z,974.46
2019-03-04T07:09:55.828Z,974.51
2019-03-04T07:10:55.815Z,974.45
2019-03-04T07:11:55.804Z,974.56
2019-03-04T07:12:55.792Z,974.54
2019-03-04T07:13:55.779Z,974.45
2019-03-04T07:14:55.767Z,974.55
2019-03-04T07:15:55.756Z,974.55
2019-03-04T07:16:55.745Z,974.60
2019-03-04T07:17:55.731Z,974.37
2019-03-04T07:18:55.720Z,974.76
2019-03-04T07:19:55.708Z,974.74
2019-03-04T07:20:55.696Z,974.64
2019-03-04T07:21:55.685Z,974.60
2019-03-04T07:22:55.678Z,974.73
2019-03-04T07:23:55.661Z,974.69
2019-03-04T07:24:55.649Z,974.81
2019-03-04T07:25:55.637Z,974.76
2019-03-04T07:26:55.626Z,974.89
2019-03-04T07:27:55.614Z,974.77
2019-03-04T07:28:55.604Z,974.78
2019-03-04T07:29:55.602Z,975.07
2019-03-04T07:30:55.581Z,974.81
2019-03-04T07:31:55.572Z,974.82
2019-03-04T07:32:55.559Z,974.80
2019-03-04T07:33:55.547Z,974.97
2019-03-04T07:34:55.539Z,974.83
2019-03-04T07:35:55.530Z,974.83
2019-03-04T07:36:55.515Z,974.77
2019-03-04T07:37:55.503Z,975.03
2019-03-04T07:38:55.492Z,974.90
2019-03-04T07:39:55.482Z,974.96
2019-03-04T07:40:55.481Z,975.21
2019-03-04T07:41:55.460Z,975.01
2019-03-04T07:42:55.449Z,975.05
2019-03-04T07:43:55.438Z,975.05
2019-03-04T07:44:55.427Z,975.22
2019-03-04T07:45:55.415Z,975.05
2019-03-04T07:46:55.405Z,975.22
2019-03-04T07:47:55.394Z,975.20
2019-03-04T07:48:55.434Z,975.19
2019-03-04T07:49:55.371Z,975.08
2019-03-04T07:50:55.363Z,975.68
2019-03-04T07:51:55.348Z,975.29
2019-03-04T07:52:55.338Z,975.21
2019-03-04T07:53:55.330Z,975.25
2019-03-04T07:54:55.314Z,975.31
2019-03-04T07:55:55.310Z,975.38
2019-03-04T07:56:55.293Z,975.25
2019-03-04T07:57:55.281Z,975.35
2019-03-04T07:58:55.271Z,975.33
2019-03-04T07:59:55.262Z,975.38
2019-03-04T08:00:55.252Z,975.45
2019-03-04T08:01:55.240Z,975.34
2019-03-04T08:02:55.230Z,975.46
2019-03-04T08:03:55.221Z,975.42
2019-03-04T08:04:55.212Z,975.27
2019-03-04T08:05:55.201Z,975.38
2019-03-04T08:06:55.192Z,975.44
2019-03-04T08:07:55.183Z,975.41
2019-03-04T08:08:55.175Z,975.45
2019-03-04T08:09:55.165Z,975.36
2019-03-04T08:10:55.156Z,975.34
2019-03-04T08:11:55.152Z,975.44
2019-03-04T08:12:55.141Z,975.62
2019-03-04T08:13:55.133Z,975.47
2019-03-04T08:14:55.124Z,975.54
2019-03-04T08:15:55.124Z,975.57
2019-03-04T08:16:55.110Z,975.66
2019-03-04T08:17:55.102Z,975.55
2019-03-04T08:18:55.094Z,975.68
2019-03-04T08:19:55.087Z,975.62
2019-03-04T08:20:55.082Z,975.51
2019-03-04T08:21:55.077Z,975.62
2019-03-04T08:22:55.067Z,975.55
2019-03-04T08:23:55.061Z,975.69
2019-03-04T08:24:55.054Z,975.57
2019-03-04T08:25:55.047Z,975.64
2019-03-04T08:26:55.041Z,975.55
2019-03-04T08:27:55.035Z,975.46
2019-03-04T08:28:55.028Z,975.70
2019-03-04T08:29:55.021Z,975.57
2019-03-04T08:30:55.016Z,975.67
2019-03-04T08:31:55.012Z,975.62
2019-03-04T08:32:55.002Z,975.56
2019-03-04T08:33:54.996Z,975.51
2019-03-04T08:34:54.987Z,975.52
2019-03-04T08:35:54.981Z,975.56
2019-03-04T08:36:54.992Z,975.84
2019-03-04T08:37:54.967Z,975.61
2019-03-04T08:38:54.962Z,975.46
2019-03-04T08:39:54.954Z,975.65
2019-03-04T08:40:54.946Z,975.57
2019-03-04T08:41:54.939Z,975.58
2019-03-04T08:42:54.931Z,975.46
2019-03-04T08:43:54.924Z,975.51
2019-03-04T08:44:54.918Z,975.49
2019-03-04T08:45:54.909Z,975.66
2019-03-04T08:46:54.901Z,975.59
2019-03-04T08:47:54.895Z,975.61
2019-03-04T08:48:54.885Z,975.49
2019-03-04T08:49:54.876Z,975.50
2019-03-04T08:50:54.890Z,975.48
2019-03-04T08:51:54.859Z,975.54
2019-03-04T08:52:54.850Z,975.50
2019-03-04T08:53:54.841Z,975.60
2019-03-04T08:54:54.832Z,975.42
2019-03-04T08:55:54.825Z,975.32
2019-03-04T08:57:03.608Z,975.45
2019-03-04T08:57:54.814Z,975.43
2019-03-04T08:58:54.798Z,975.49
2019-03-04T08:59:54.787Z,975.56
2019-03-04T09:00:54.777Z,975.50
2019-03-04T09:01:54.768Z,975.50
2019-03-04T09:02:54.758Z,975.46
2019-03-04T09:03:54.750Z,975.55
2019-03-04T09:04:54.741Z,975.59
2019-03-04T09:05:54.731Z,975.68
2019-03-04T09:06:54.723Z,975.10
2019-03-04T09:07:54.714Z,975.57
2019-03-04T09:08:54.707Z,975.49
2019-03-04T09:09:54.695Z,975.39
2019-03-04T09:10:54.686Z,975.49
2019-03-04T09:11:54.676Z,975.68
2019-03-04T09:12:54.685Z,975.36
2019-03-04T09:13:54.657Z,975.39
2019-03-04T09:14:54.647Z,975.41
2019-03-04T09:15:54.641Z,975.48
2019-03-04T09:16:54.629Z,975.19
2019-03-04T09:17:54.620Z,975.65
2019-03-04T09:18:54.609Z,975.32
2019-03-04T09:19:54.598Z,975.48
2019-03-04T09:20:54.592Z,975.12
2019-03-04T09:21:54.580Z,975.46
2019-03-04T09:22:54.570Z,975.41
2019-03-04T09:23:54.558Z,975.41
2019-03-04T09:24:54.548Z,975.44
2019-03-04T09:25:54.537Z,975.33
2019-03-04T09:26:54.527Z,975.44
2019-03-04T09:27:54.516Z,975.43
2019-03-04T09:28:54.558Z,975.33
2019-03-04T09:29:54.501Z,975.26
2019-03-04T09:30:54.487Z,975.59
2019-03-04T09:31:54.476Z,975.17
2019-03-04T09:32:54.466Z,975.20
2019-03-04T09:33:54.455Z,975.18
2019-03-04T09:34:54.446Z,975.55
2019-03-04T09:35:54.437Z,975.13
2019-03-04T09:36:54.434Z,975.36
2019-03-04T09:37:54.418Z,974.94
2019-03-04T09:38:54.415Z,975.43
2019-03-04T09:39:54.400Z,975.16
2019-03-04T09:40:54.391Z,975.25
2019-03-04T09:41:54.382Z,975.26
2019-03-04T09:42:54.373Z,975.31
2019-03-04T09:43:54.364Z,975.54
2019-03-04T09:44:54.355Z,975.18
2019-03-04T09:45:54.345Z,975.24
2019-03-04T09:46:54.337Z,975.15
2019-03-04T09:47:54.327Z,975.18
2019-03-04T09:48:54.368Z,975.23
2019-03-04T09:49:54.307Z,975.23
2019-03-04T09:50:54.299Z,975.25
2019-03-04T09:51:54.290Z,975.27
2019-03-04T09:52:54.280Z,975.26
2019-03-04T09:53:54.273Z,975.14
2019-03-04T09:54:54.262Z,975.09
2019-03-04T09:55:54.251Z,975.17
2019-03-04T09:56:54.241Z,975.06
2019-03-04T09:57:54.231Z,975.14
2019-03-04T09:58:54.221Z,974.99
2019-03-04T09:59:54.213Z,975.13
2019-03-04T10:00:54.200Z,975.04
2019-03-04T10:01:54.196Z,975.09
2019-03-04T10:02:54.181Z,975.08
2019-03-04T10:03:54.172Z,975.12
2019-03-04T10:04:54.161Z,975.02
2019-03-04T10:05:54.150Z,975.12
2019-03-04T10:06:54.140Z,975.18
2019-03-04T10:07:54.132Z,975.11
2019-03-04T10:08:54.120Z,974.98
2019-03-04T10:09:54.109Z,975.15
2019-03-04T10:10:54.099Z,975.12
2019-03-04T10:11:54.088Z,975.02
2019-03-04T10:12:54.082Z,975.05
2019-03-04T10:13:54.068Z,975.19
2019-03-04T10:14:54.056Z,975.05
2019-03-04T10:15:54.050Z,974.96
2019-03-04T10:16:54.036Z,974.96
2019-03-04T10:17:54.026Z,974.90
2019-03-04T10:18:54.015Z,975.16
2019-03-04T10:19:54.005Z,975.04
2019-03-04T10:20:53.995Z,975.09
2019-03-04T10:21:53.983Z,975.04
2019-03-04T10:22:53.973Z,974.95
2019-03-04T10:23:53.964Z,975.01
2019-03-04T10:24:53.953Z,974.98
2019-03-04T10:25:53.942Z,975.06
2019-03-04T10:26:53.932Z,974.99
2019-03-04T10:27:53.925Z,975.20
2019-03-04T10:28:53.963Z,975.20
2019-03-04T10:29:53.899Z,975.12
2019-03-04T10:30:53.891Z,975.26
2019-03-04T10:31:53.885Z,975.06
2019-03-04T10:32:53.869Z,974.91
2019-03-04T10:33:53.857Z,974.83
2019-03-04T10:34:53.847Z,974.96
2019-03-04T10:35:53.839Z,974.99
2019-03-04T10:36:53.827Z,975.20
2019-03-04T10:37:53.815Z,975.11
2019-03-04T10:38:53.806Z,975.27
2019-03-04T10:39:53.794Z,975.05
2019-03-04T10:40:53.783Z,975.13
2019-03-04T10:41:53.773Z,975.21
2019-03-04T10:42:53.761Z,974.98
2019-03-04T10:43:53.752Z,975.20
2019-03-04T10:44:53.741Z,975.18
2019-03-04T10:45:53.729Z,975.31
2019-03-04T10:46:53.720Z,975.10
2019-03-04T10:47:53.710Z,975.12
2019-03-04T10:48:53.699Z,975.12
2019-03-04T10:49:53.687Z,975.18
2019-03-04T10:50:53.677Z,975.19
2019-03-04T10:51:53.667Z,975.24
2019-03-04T10:52:53.657Z,975.29
2019-03-04T10:53:53.650Z,975.12
2019-03-04T10:54:53.640Z,975.63
2019-03-04T10:55:53.630Z,975.48
2019-03-04T10:56:53.618Z,976.06
2019-03-04T10:57:53.604Z,976.18
2019-03-04T10:58:53.595Z,976.21
2019-03-04T10:59:53.585Z,976.52
2019-03-04T11:00:53.573Z,976.47
2019-03-04T11:01:53.561Z,976.32
2019-03-04T11:02:53.550Z,976.39
2019-03-04T11:03:53.540Z,976.35
2019-03-04T11:04:53.528Z,976.30
2019-03-04T11:05:53.544Z,976.43
2019-03-04T11:06:54.866Z,976.55
2019-03-04T11:07:53.490Z,976.58
2019-03-04T11:08:53.479Z,976.62
2019-03-04T11:09:53.466Z,976.72
2019-03-04T11:10:53.454Z,976.84
2019-03-04T11:11:53.441Z,976.80
2019-03-04T11:12:53.431Z,976.79
2019-03-04T11:13:53.420Z,976.92
2019-03-04T11:14:53.403Z,976.91
2019-03-04T11:15:53.391Z,976.67
2019-03-04T11:16:53.377Z,976.94
2019-03-04T11:17:54.404Z,977.07
2019-03-04T11:18:53.350Z,977.04
2019-03-04T11:19:53.337Z,976.98
2019-03-04T11:20:53.326Z,976.96
2019-03-04T11:21:53.311Z,977.07
2019-03-04T11:22:53.298Z,976.94
2019-03-04T11:23:53.284Z,977.16
2019-03-04T11:24:53.271Z,977.11
2019-03-04T11:25:53.257Z,977.17
2019-03-04T11:26:53.244Z,977.21
2019-03-04T11:27:53.231Z,977.08
2019-03-04T11:28:53.218Z,977.21
2019-03-04T11:29:53.206Z,977.14
2019-03-04T11:30:53.194Z,977.19
2019-03-04T11:31:53.181Z,977.24
2019-03-04T11:32:53.167Z,977.30
2019-03-04T11:33:53.153Z,977.35
2019-03-04T11:34:53.140Z,977.47
2019-03-04T11:35:53.127Z,977.43
2019-03-04T11:36:53.116Z,977.51
2019-03-04T11:37:53.108Z,977.49
2019-03-04T11:38:53.088Z,977.52
2019-03-04T11:39:53.077Z,977.59
2019-03-04T11:40:53.064Z,977.55
2019-03-04T11:41:53.049Z,977.53
2019-03-04T11:42:53.036Z,977.53
2019-03-04T11:43:53.023Z,977.65
2019-03-04T11:44:53.011Z,977.70
2019-03-04T11:45:52.997Z,977.72
2019-03-04T11:46:52.985Z,977.76
2019-03-04T11:47:52.972Z,977.83
2019-03-04T11:48:52.959Z,977.91
2019-03-04T11:49:53.514Z,977.89
2019-03-04T11:50:52.934Z,977.94
2019-03-04T11:51:52.921Z,978.06
2019-03-04T11:52:52.908Z,978.03
2019-03-04T11:53:52.903Z,978.06
2019-03-04T11:54:52.885Z,978.09
2019-03-04T11:55:53.597Z,978.02
2019-03-04T11:56:52.858Z,978.14
2019-03-04T11:57:52.844Z,978.13
2019-03-04T11:58:52.833Z,978.20
2019-03-04T11:59:52.820Z,978.18
2019-03-04T12:00:52.807Z,978.19
2019-03-04T12:01:52.795Z,978.21
2019-03-04T12:02:52.782Z,978.27
2019-03-04T12:03:52.770Z,978.24
2019-03-04T12:04:52.759Z,978.24
2019-03-04T12:05:52.746Z,978.30
2019-03-04T12:06:52.738Z,978.36
2019-03-04T12:07:52.721Z,978.34
2019-03-04T12:08:52.710Z,978.34
2019-03-04T12:09:52.701Z,978.42
2019-03-04T12:10:52.685Z,978.41
2019-03-04T12:11:52.673Z,978.45
2019-03-04T12:12:52.661Z,978.48
2019-03-04T12:13:52.649Z,978.55
2019-03-04T12:14:52.638Z,978.62
2019-03-04T12:15:52.626Z,978.64
2019-03-04T12:16:52.615Z,978.70
2019-03-04T12:17:52.603Z,978.61
2019-03-04T12:18:52.590Z,978.71
2019-03-04T12:19:52.580Z,978.68
2019-03-04T12:20:52.571Z,978.79
2019-03-04T12:21:52.559Z,978.77
2019-03-04T12:22:52.548Z,978.83
2019-03-04T12:23:52.536Z,978.81
2019-03-04T12:24:52.524Z,978.81
2019-03-04T12:25:52.513Z,978.87
2019-03-04T12:26:52.503Z,978.93
2019-03-04T12:27:52.492Z,978.92